Time;durP1;ratioP1;P1;durP2;ratioP2;P2;SDS_P1;SDS_P2;PMS_P1;PMS_P2;Temp;Humidity;BMP_temperature;BMP_pressure;BME280_temperature;BME280_humidity;BME280_pressure;Samples;Min_cycle;Max_cycle;Signal;HPM_P1;HPM_P2
2021/12/01 00:00:29;;;;;;;;;6.67;6.00;;;;;11.64;63.88;100448.03;2108123;27;48044;-66
2021/12/01 00:01:30;;;;;;;;;6.50;5.25;;;;;11.65;64.09;100452.44;2091435;27;47476;-66
2021/12/01 00:02:31;;;;;;;;;5.00;5.00;;;;;11.65;64.07;100448.91;2099409;28;46966;-66
2021/12/01 00:03:31;;;;;;;;;6.67;5.67;;;;;11.65;63.86;100452.44;2099716;27;48555;-66
2021/12/01 00:04:32;;;;;;;;;6.00;5.00;;;;;11.66;63.80;100448.88;2092105;28;47273;-66
2021/12/01 00:05:33;;;;;;;;;5.33;5.33;;;;;11.67;64.00;100449.72;2086370;28;47315;-66
2021/12/01 00:06:35;;;;;;;;;6.00;4.00;;;;;11.66;64.02;100450.66;2083679;28;47492;-66
2021/12/01 00:07:36;;;;;;;;;6.75;6.75;;;;;11.67;64.07;100444.41;2089188;28;47233;-67
2021/12/01 00:08:37;;;;;;;;;5.00;5.00;;;;;11.67;63.98;100444.41;2091638;28;48224;-67
2021/12/01 00:09:38;;;;;;;;;5.50;5.50;;;;;11.66;63.82;100440.03;2092113;28;46988;-67
2021/12/01 00:10:39;;;;;;;;;4.00;4.00;;;;;11.66;63.62;100440.03;2091077;28;45677;-67
2021/12/01 00:11:40;;;;;;;;;5.25;3.75;;;;;11.67;63.81;100441.75;2091235;28;47473;-65
2021/12/01 00:12:40;;;;;;;;;6.00;6.00;;;;;11.67;64.07;100431.13;2091952;28;47946;-66
2021/12/01 00:13:41;;;;;;;;;6.00;6.00;;;;;11.67;63.90;100426.69;2092127;28;47260;-68
2021/12/01 00:14:41;;;;;;;;;7.33;7.33;;;;;11.67;63.96;100418.69;2091207;28;47283;-66
2021/12/01 00:15:43;;;;;;;;;6.00;4.33;;;;;11.69;63.83;100414.25;2091452;28;47698;-65
2021/12/01 00:16:44;;;;;;;;;6.00;5.25;;;;;11.70;63.99;100413.31;2091749;28;48357;-65
2021/12/01 00:17:45;;;;;;;;;4.33;4.33;;;;;11.68;64.09;100407.16;2085274;28;48113;-64
2021/12/01 00:18:46;;;;;;;;;5.75;5.25;;;;;11.69;63.97;100403.59;2084866;28;48234;-68
2021/12/01 00:19:46;;;;;;;;;4.33;4.33;;;;;11.68;63.88;100399.19;2092201;28;47230;-65
2021/12/01 00:20:47;;;;;;;;;3.00;3.00;;;;;11.68;63.96;100398.31;2091009;27;47152;-65
2021/12/01 00:21:47;;;;;;;;;6.00;5.00;;;;;11.68;64.00;100393.00;2084102;28;45194;-66
2021/12/01 00:22:48;;;;;;;;;6.33;5.33;;;;;11.68;63.77;100391.19;2090969;28;46960;-67
2021/12/01 00:23:49;;;;;;;;;4.00;4.00;;;;;11.68;64.06;100385.88;2091165;28;47321;-68
2021/12/01 00:24:49;;;;;;;;;5.00;5.00;;;;;11.70;64.23;100385.88;2090921;28;48135;-67
2021/12/01 00:25:50;;;;;;;;;5.00;5.00;;;;;11.68;63.96;100375.25;2091912;28;46910;-66
2021/12/01 00:26:51;;;;;;;;;7.00;5.75;;;;;11.69;63.83;100370.84;2091320;28;48223;-66
2021/12/01 00:27:53;;;;;;;;;5.00;5.00;;;;;11.69;64.16;100354.88;2091277;28;47215;-65
2021/12/01 00:28:53;;;;;;;;;5.50;5.25;;;;;11.70;64.02;100364.59;2091836;28;47619;-65
2021/12/01 00:29:56;;;;;;;;;6.33;5.00;;;;;11.71;64.11;100371.66;2091753;28;46047;-65
2021/12/01 00:30:58;;;;;;;;;4.75;4.75;;;;;11.72;64.14;100357.44;2091932;28;47523;-65
2021/12/01 00:31:58;;;;;;;;;7.00;5.00;;;;;11.72;64.10;100360.09;2099576;28;47367;-65
2021/12/01 00:32:59;;;;;;;;;5.00;5.00;;;;;11.73;63.78;100348.53;2099620;28;48101;-65
2021/12/01 00:34:01;;;;;;;;;6.00;6.00;;;;;11.73;63.96;100353.88;2091791;28;47156;-65
2021/12/01 00:35:06;;;;;;;;;3.00;3.00;;;;;11.73;63.93;100340.56;2091822;28;48220;-65
2021/12/01 00:36:13;;;;;;;;;6.25;6.00;;;;;11.74;63.85;100342.31;2091974;27;48080;-66
2021/12/01 00:37:13;;;;;;;;;9.25;7.00;;;;;11.74;63.88;100335.19;2090299;28;48050;-66
2021/12/01 00:38:14;;;;;;;;;6.00;5.67;;;;;11.75;64.07;100344.91;2087064;27;46993;-65
2021/12/01 00:39:14;;;;;;;;;5.00;5.00;;;;;11.76;64.09;100332.50;2083343;28;48339;-65
2021/12/01 00:40:16;;;;;;;;;6.00;6.00;;;;;11.76;64.05;100333.34;2089526;28;48382;-65
2021/12/01 00:41:20;;;;;;;;;7.00;7.00;;;;;11.77;64.14;100334.22;2089329;28;48128;-66
2021/12/01 00:42:20;;;;;;;;;6.75;6.75;;;;;11.77;63.83;100321.81;2083532;28;47763;-69
2021/12/01 00:43:24;;;;;;;;;6.33;6.33;;;;;11.77;63.92;100316.47;2088461;28;47999;-65
2021/12/01 00:44:24;;;;;;;;;7.00;7.00;;;;;11.77;64.21;100308.50;2091861;28;47316;-66
2021/12/01 00:45:27;;;;;;;;;7.00;7.00;;;;;11.78;64.14;100314.69;2091818;28;47532;-66
2021/12/01 00:46:55;;;;;;;;;8.00;7.00;;;;;11.78;63.87;100301.41;2090815;28;48152;-65
2021/12/01 00:47:55;;;;;;;;;5.80;5.80;;;;;11.79;63.85;100300.50;2091714;28;48321;-65
2021/12/01 00:48:56;;;;;;;;;6.00;6.00;;;;;11.79;63.93;100297.84;2091820;28;48339;-64
2021/12/01 00:49:56;;;;;;;;;7.00;6.00;;;;;11.79;64.04;100296.06;2091962;28;48418;-68
2021/12/01 00:50:57;;;;;;;;;4.67;4.67;;;;;11.82;64.00;100296.91;2089637;27;46204;-68
2021/12/01 00:51:57;;;;;;;;;7.00;7.00;;;;;11.81;64.04;100290.69;2091922;28;48121;-66
2021/12/01 00:53:02;;;;;;;;;5.00;5.00;;;;;11.81;64.00;100293.34;2087406;28;47345;-64
2021/12/01 00:54:02;;;;;;;;;5.25;5.25;;;;;11.81;63.90;100288.03;2108056;27;48021;-67
2021/12/01 00:55:03;;;;;;;;;2.00;2.00;;;;;11.82;63.71;100288.94;2103972;27;47165;-67
2021/12/01 00:56:04;;;;;;;;;6.00;6.00;;;;;11.82;63.79;100288.94;2091902;28;48221;-65
2021/12/01 00:57:05;;;;;;;;;6.00;6.00;;;;;11.80;63.88;100286.28;2095213;28;45460;-66
2021/12/01 00:58:06;;;;;;;;;7.00;6.00;;;;;11.83;63.81;100296.84;2092035;28;47143;-68
2021/12/01 00:59:07;;;;;;;;;6.00;5.75;;;;;11.81;63.90;100277.41;2090687;28;47968;-68
2021/12/01 01:00:09;;;;;;;;;5.33;5.33;;;;;11.82;64.01;100275.63;2087309;28;47966;-67
2021/12/01 01:01:10;;;;;;;;;7.75;7.75;;;;;11.82;63.67;100279.16;2090249;28;46648;-67
2021/12/01 01:02:10;;;;;;;;;8.00;8.00;;;;;11.82;63.84;100275.63;2099796;27;48136;-66
2021/12/01 01:03:11;;;;;;;;;7.00;7.00;;;;;11.82;64.01;100271.19;2096635;28;46997;-67
2021/12/01 01:04:11;;;;;;;;;5.67;5.00;;;;;11.83;63.99;100266.75;2096245;27;47299;-66
2021/12/01 01:05:12;;;;;;;;;4.67;4.67;;;;;11.83;63.82;100270.25;2087395;27;48230;-66
2021/12/01 01:06:12;;;;;;;;;5.33;5.33;;;;;11.84;63.87;100273.78;2088923;28;48204;-66
2021/12/01 01:07:13;;;;;;;;;4.33;3.67;;;;;11.85;63.98;100271.09;2091578;27;48190;-67
2021/12/01 01:08:15;;;;;;;;;5.33;4.33;;;;;11.85;63.97;100278.19;2093895;28;46325;-66
2021/12/01 01:09:16;;;;;;;;;5.00;5.00;;;;;11.85;64.02;100276.41;2093656;27;48623;-68
2021/12/01 01:10:34;;;;;;;;;5.67;5.67;;;;;11.86;63.98;100269.28;2091784;27;46500;-67
2021/12/01 01:17:00;;;;;;;;;3.00;3.00;;;;;11.90;63.84;100260.28;2083176;28;46381;-66
2021/12/01 01:18:08;;;;;;;;;4.50;4.00;;;;;11.89;63.91;100254.09;2093523;28;48250;-66
2021/12/01 01:19:08;;;;;;;;;2.00;2.00;;;;;11.90;63.67;100247.84;2093922;27;47280;-65
2021/12/01 01:20:12;;;;;;;;;4.50;4.50;;;;;11.90;63.96;100247.84;2091614;28;47156;-65
2021/12/01 01:21:13;;;;;;;;;4.75;4.75;;;;;11.89;63.76;100235.47;2092174;28;47305;-65
2021/12/01 01:22:14;;;;;;;;;5.00;5.00;;;;;11.89;63.60;100240.78;2094287;27;47210;-67
2021/12/01 01:23:14;;;;;;;;;4.00;4.00;;;;;11.91;63.63;100235.41;2091348;28;48295;-67
2021/12/01 01:24:16;;;;;;;;;3.00;3.00;;;;;11.90;63.47;100244.31;2094172;28;48429;-70
2021/12/01 01:25:17;;;;;;;;;3.50;3.50;;;;;11.90;63.78;100234.56;2092846;28;48157;-67
2021/12/01 01:26:19;;;;;;;;;3.67;3.67;;;;;11.90;63.70;100239.88;2092970;27;45541;-67
2021/12/01 01:27:20;;;;;;;;;3.25;3.25;;;;;11.91;63.55;100220.34;2094315;28;47555;-66
2021/12/01 01:28:20;;;;;;;;;4.00;4.00;;;;;11.91;63.66;100236.28;2090777;28;47872;-66
2021/12/01 01:29:21;;;;;;;;;3.00;3.00;;;;;11.90;63.58;100229.22;2093696;28;45919;-66
2021/12/01 01:30:22;;;;;;;;;6.00;4.75;;;;;11.92;63.63;100221.19;2093888;28;47150;-67
2021/12/01 01:31:23;;;;;;;;;4.33;4.00;;;;;11.92;63.57;100237.16;2091450;27;47031;-67
2021/12/01 01:32:23;;;;;;;;;3.33;3.00;;;;;11.91;63.61;100223.00;2092785;28;46131;-66
2021/12/01 01:33:24;;;;;;;;;4.00;4.00;;;;;11.90;63.48;100218.59;2093466;28;47105;-66
2021/12/01 01:34:26;;;;;;;;;3.67;3.67;;;;;11.91;63.74;100220.34;2092212;27;48142;-67
2021/12/01 01:35:27;;;;;;;;;4.00;4.00;;;;;11.91;63.69;100216.81;2094365;27;47271;-66
2021/12/01 01:36:28;;;;;;;;;3.00;3.00;;;;;11.91;63.52;100214.16;2091885;28;48143;-66
2021/12/01 01:37:28;;;;;;;;;4.50;4.50;;;;;11.90;63.54;100210.63;2093636;27;46837;-66
2021/12/01 01:38:31;;;;;;;;;4.00;4.00;;;;;11.90;63.50;100210.63;2091038;28;48254;-65
2021/12/01 01:39:32;;;;;;;;;3.25;3.25;;;;;11.91;63.71;100203.50;2091478;28;47565;-66
2021/12/01 01:40:34;;;;;;;;;4.33;4.33;;;;;11.93;63.77;100199.00;2094206;27;47247;-66
2021/12/01 01:41:35;;;;;;;;;5.25;4.75;;;;;11.93;63.61;100199.88;2094233;28;48333;-66
2021/12/01 01:42:36;;;;;;;;;2.25;2.25;;;;;11.93;63.82;100202.53;2091318;28;46902;-65
2021/12/01 01:43:38;;;;;;;;;7.67;6.00;;;;;11.93;63.58;100194.56;2091432;28;47195;-65
2021/12/01 01:44:39;;;;;;;;;5.00;5.00;;;;;11.94;63.71;100191.00;2099614;27;48402;-66
2021/12/01 01:45:39;;;;;;;;;4.00;3.00;;;;;11.95;63.62;100203.38;2084233;27;48336;-66
2021/12/01 01:46:41;;;;;;;;;5.33;5.33;;;;;11.96;63.76;100193.59;2085531;28;48001;-67
2021/12/01 01:48:08;;;;;;;;;5.00;5.00;;;;;11.94;63.56;100193.66;2088820;28;46386;-67
2021/12/01 01:49:14;;;;;;;;;5.50;5.00;;;;;11.94;63.53;100188.34;2088568;28;47924;-66
2021/12/01 01:50:26;;;;;;;;;5.25;4.00;;;;;11.95;63.86;100190.06;2089096;28;47089;-66
2021/12/01 01:51:27;;;;;;;;;4.75;4.75;;;;;11.94;63.67;100176.81;2097885;27;47427;-66
2021/12/01 01:52:29;;;;;;;;;4.50;4.50;;;;;11.95;63.64;100186.56;2089736;28;47410;-66
2021/12/01 01:53:30;;;;;;;;;2.50;1.75;;;;;11.95;63.78;100189.22;2099167;27;48405;-66
2021/12/01 01:54:31;;;;;;;;;5.00;5.00;;;;;11.95;63.85;100183.88;2094668;28;47461;-67
2021/12/01 01:55:32;;;;;;;;;4.67;4.33;;;;;11.95;63.80;100179.44;2088044;28;47796;-67
2021/12/01 01:56:33;;;;;;;;;7.00;7.00;;;;;11.95;63.49;100170.59;2091371;28;47377;-66
2021/12/01 01:57:33;;;;;;;;;7.33;7.33;;;;;11.95;63.61;100182.09;2091068;28;47106;-65
2021/12/01 01:58:35;;;;;;;;;5.33;4.67;;;;;11.95;63.85;100174.13;2093667;28;47227;-66
2021/12/01 01:59:35;;;;;;;;;5.25;5.25;;;;;11.95;63.78;100174.13;2090514;28;47086;-66
2021/12/01 02:00:53;;;;;;;;;4.00;4.00;;;;;11.95;63.71;100176.78;2084575;28;47896;-67
2021/12/01 02:01:58;;;;;;;;;4.25;4.25;;;;;11.96;63.85;100177.66;2093107;28;47363;-66
2021/12/01 02:02:59;;;;;;;;;5.25;5.25;;;;;11.95;63.82;100166.16;2091221;28;46351;-66
2021/12/01 02:04:00;;;;;;;;;4.00;4.00;;;;;11.96;63.77;100178.50;2092313;28;48296;-66
2021/12/01 02:05:01;;;;;;;;;4.00;4.00;;;;;11.96;63.66;100182.97;2084447;28;47867;-65
2021/12/01 02:06:02;;;;;;;;;6.75;5.50;;;;;11.95;63.61;100174.13;2082199;28;47846;-66
2021/12/01 02:07:04;;;;;;;;;5.00;5.00;;;;;11.95;63.85;100162.63;2091687;28;48005;-67
2021/12/01 02:08:04;;;;;;;;;4.50;4.50;;;;;11.95;63.73;100160.81;2093198;28;48191;-66
2021/12/01 02:09:06;;;;;;;;;5.67;5.67;;;;;11.95;63.76;100160.81;2091142;28;48485;-66
2021/12/01 02:10:07;;;;;;;;;7.00;5.75;;;;;11.96;63.87;100153.72;2093499;28;47456;-65
2021/12/01 02:11:10;;;;;;;;;6.25;4.75;;;;;11.95;63.70;100150.19;2088976;28;47279;-66
2021/12/01 02:12:11;;;;;;;;;6.50;5.50;;;;;11.94;63.96;100151.13;2083416;28;47756;-66
2021/12/01 02:13:11;;;;;;;;;4.00;4.00;;;;;11.94;63.90;100137.81;2092708;28;48003;-66
2021/12/01 02:14:12;;;;;;;;;6.00;6.00;;;;;11.94;63.85;100139.56;2091310;28;47267;-65
2021/12/01 02:15:14;;;;;;;;;7.00;5.00;;;;;11.93;63.92;100140.50;2087777;27;47036;-65
2021/12/01 02:16:16;;;;;;;;;4.50;4.50;;;;;11.94;63.82;100144.91;2088838;28;48416;-67
2021/12/01 02:17:16;;;;;;;;;5.75;5.00;;;;;11.93;63.55;100130.72;2083728;28;48046;-66
2021/12/01 02:18:18;;;;;;;;;5.67;5.00;;;;;11.92;63.85;100131.66;2082941;27;47533;-66
2021/12/01 02:19:19;;;;;;;;;3.00;3.00;;;;;11.92;64.15;100134.31;2089040;28;48526;-66
2021/12/01 02:20:20;;;;;;;;;5.00;5.00;;;;;11.93;63.84;100122.75;2090538;28;48082;-65
2021/12/01 02:21:27;;;;;;;;;2.00;2.00;;;;;11.92;64.03;100131.66;2090574;28;47514;-64
2021/12/01 02:22:30;;;;;;;;;4.33;4.33;;;;;11.93;64.05;100111.25;2091150;27;46998;-65
2021/12/01 02:23:33;;;;;;;;;6.75;6.75;;;;;11.93;64.16;100111.25;2086691;28;48318;-65
2021/12/01 02:24:33;;;;;;;;;5.25;5.25;;;;;11.93;64.19;100121.91;2082887;28;47092;-65
2021/12/01 02:25:34;;;;;;;;;5.00;5.00;;;;;11.92;63.98;100106.88;2088928;28;45607;-65
2021/12/01 02:26:38;;;;;;;;;7.67;5.67;;;;;11.92;64.04;100106.88;2092816;28;45331;-67
2021/12/01 02:27:39;;;;;;;;;6.25;6.25;;;;;11.92;64.07;100110.38;2092847;28;47023;-65
2021/12/01 02:28:41;;;;;;;;;6.00;5.00;;;;;11.92;64.03;100089.13;2092350;28;47209;-66
2021/12/01 02:29:41;;;;;;;;;5.25;5.25;;;;;11.92;64.02;100096.22;2092669;28;47547;-65
2021/12/01 02:30:42;;;;;;;;;5.00;5.00;;;;;11.91;64.37;100090.03;2092072;28;48099;-66
2021/12/01 02:31:43;;;;;;;;;6.00;6.00;;;;;11.93;64.30;100097.97;2092856;28;48017;-67
2021/12/01 02:32:44;;;;;;;;;7.00;7.00;;;;;11.91;64.13;100095.38;2091662;28;47446;-65
2021/12/01 02:33:45;;;;;;;;;8.00;7.00;;;;;11.91;64.28;100090.03;2092188;27;47215;-66
2021/12/01 02:34:45;;;;;;;;;6.67;6.67;;;;;11.90;64.45;100092.75;2092283;27;47262;-66
2021/12/01 02:35:46;;;;;;;;;8.00;8.00;;;;;11.90;64.17;100087.44;2100366;28;47129;-66
2021/12/01 02:36:53;;;;;;;;;6.00;6.00;;;;;11.88;64.55;100087.50;2100219;28;47735;-66
2021/12/01 02:37:53;;;;;;;;;7.75;7.75;;;;;11.87;64.62;100083.13;2090655;28;47745;-66
2021/12/01 02:38:54;;;;;;;;;5.33;5.33;;;;;11.88;64.46;100091.97;2088384;28;47086;-66
2021/12/01 02:39:54;;;;;;;;;6.67;6.67;;;;;11.87;64.66;100067.16;2085516;28;47380;-65
2021/12/01 02:40:55;;;;;;;;;6.67;6.33;;;;;11.86;64.49;100081.38;2091487;28;45336;-65
2021/12/01 02:41:58;;;;;;;;;9.33;9.33;;;;;11.86;64.49;100064.56;2090346;28;47884;-66
2021/12/01 02:42:59;;;;;;;;;7.00;7.00;;;;;11.84;64.75;100063.75;2085246;28;45458;-65
2021/12/01 02:44:00;;;;;;;;;7.00;7.00;;;;;11.84;64.78;100067.28;2092334;28;48367;-65
2021/12/01 02:45:02;;;;;;;;;8.25;6.25;;;;;11.84;64.88;100067.28;2091959;28;46126;-64
2021/12/01 02:46:03;;;;;;;;;6.25;6.00;;;;;11.84;64.80;100056.66;2091660;28;47600;-65
2021/12/01 02:47:04;;;;;;;;;7.75;7.75;;;;;11.83;64.94;100049.59;2086818;28;46254;-65
2021/12/01 02:48:05;;;;;;;;;10.00;10.00;;;;;11.83;65.02;100049.59;2087244;28;47512;-66
2021/12/01 02:49:06;;;;;;;;;11.33;10.33;;;;;11.84;65.14;100042.50;2091357;28;47569;-66
2021/12/01 02:50:07;;;;;;;;;8.25;8.25;;;;;11.83;64.82;100043.41;2091789;28;48194;-67
2021/12/01 02:51:10;;;;;;;;;7.50;7.50;;;;;11.82;64.94;100031.91;2099923;28;48625;-67
2021/12/01 02:52:10;;;;;;;;;9.25;7.75;;;;;11.83;65.03;100030.13;2098209;27;47314;-65
2021/12/01 02:53:11;;;;;;;;;7.67;7.67;;;;;11.83;65.10;100032.78;2091784;28;47912;-65
2021/12/01 02:54:12;;;;;;;;;7.00;7.00;;;;;11.82;64.82;100025.75;2091508;27;46859;-65
2021/12/01 02:55:15;;;;;;;;;8.67;8.33;;;;;11.82;65.23;100013.31;2091806;28;48015;-64
2021/12/01 02:56:17;;;;;;;;;9.75;9.75;;;;;11.81;65.09;100019.53;2093268;28;48232;-65
2021/12/01 02:57:17;;;;;;;;;11.00;10.25;;;;;11.80;65.08;100015.13;2093755;27;47353;-65
2021/12/01 02:58:19;;;;;;;;;8.00;6.33;;;;;11.81;65.33;100016.88;2097093;28;47168;-63
2021/12/01 02:59:21;;;;;;;;;8.25;8.25;;;;;11.80;65.34;100004.50;2096599;28;45454;-66
2021/12/01 03:00:23;;;;;;;;;8.25;8.25;;;;;11.78;65.33;100020.47;2100050;28;47548;-65
2021/12/01 03:01:24;;;;;;;;;8.00;8.00;;;;;11.79;65.21;100002.78;2093545;27;48050;-65
2021/12/01 03:02:24;;;;;;;;;9.33;8.00;;;;;11.76;65.22;99998.41;2092426;28;47433;-65
2021/12/01 03:03:26;;;;;;;;;6.00;6.00;;;;;11.75;65.35;99993.16;2099445;28;45263;-66
2021/12/01 03:04:26;;;;;;;;;6.75;6.75;;;;;11.73;65.28;99990.56;2096470;27;48221;-65
2021/12/01 03:05:27;;;;;;;;;8.00;8.00;;;;;11.74;65.57;99981.66;2084167;28;48107;-65
2021/12/01 03:06:28;;;;;;;;;8.00;8.00;;;;;11.73;65.76;99979.06;2091556;28;47355;-65
2021/12/01 03:07:31;;;;;;;;;6.25;6.25;;;;;11.72;65.47;99964.91;2092644;28;47272;-64
2021/12/01 03:08:34;;;;;;;;;5.00;5.00;;;;;11.72;65.44;99966.69;2092727;28;48387;-65
2021/12/01 03:09:34;;;;;;;;;5.00;5.00;;;;;11.71;65.61;99960.53;2085559;28;47500;-64
2021/12/01 03:10:35;;;;;;;;;6.33;6.33;;;;;11.71;65.56;99959.66;2092030;28;47333;-65
2021/12/01 03:11:37;;;;;;;;;6.00;4.33;;;;;11.71;65.50;99944.56;2092696;28;47170;-65
2021/12/01 03:12:39;;;;;;;;;4.00;4.00;;;;;11.70;65.64;99948.16;2088893;28;46167;-65
2021/12/01 03:13:40;;;;;;;;;4.25;4.25;;;;;11.70;65.72;99950.81;2092634;28;47267;-65
2021/12/01 03:14:41;;;;;;;;;6.00;6.00;;;;;11.70;65.70;99937.53;2090164;28;47337;-64
2021/12/01 03:15:42;;;;;;;;;4.75;4.75;;;;;11.70;65.54;99934.88;2093649;28;47277;-64
2021/12/01 03:16:44;;;;;;;;;5.67;5.67;;;;;11.71;65.65;99928.63;2090364;28;47377;-65
2021/12/01 03:17:45;;;;;;;;;6.25;5.00;;;;;11.72;65.71;99935.66;2096571;27;47250;-65
2021/12/01 03:18:45;;;;;;;;;6.33;5.00;;;;;11.71;65.69;99920.66;2091911;28;48356;-66
2021/12/01 03:19:46;;;;;;;;;5.00;5.00;;;;;11.70;65.67;99932.22;2093597;27;46806;-65
2021/12/01 03:20:48;;;;;;;;;4.00;4.00;;;;;11.71;65.84;99938.41;2093878;28;45380;-65
2021/12/01 03:21:49;;;;;;;;;4.75;4.75;;;;;11.70;65.79;99940.19;2092653;27;47450;-64
2021/12/01 03:22:49;;;;;;;;;5.00;5.00;;;;;11.71;65.56;99941.06;2093778;28;48345;-64
2021/12/01 03:23:50;;;;;;;;;3.00;3.00;;;;;11.71;65.82;99933.94;2101933;27;48147;-66
2021/12/01 03:24:51;;;;;;;;;2.00;2.00;;;;;11.71;65.65;99925.09;2091453;28;46152;-65
2021/12/01 03:25:52;;;;;;;;;2.50;2.50;;;;;11.72;65.90;99924.19;2077202;28;46068;-66
2021/12/01 03:26:52;;;;;;;;;2.75;2.75;;;;;11.71;65.70;99931.28;2084069;28;47532;-67
2021/12/01 03:27:53;;;;;;;;;2.00;2.00;;;;;11.72;65.74;99943.66;2084244;28;46931;-65
2021/12/01 03:28:54;;;;;;;;;2.75;2.75;;;;;11.72;65.96;99938.31;2093157;28;47655;-65
2021/12/01 03:29:54;;;;;;;;;3.00;3.00;;;;;11.72;65.82;99930.34;2091692;28;47502;-64
2021/12/01 03:30:55;;;;;;;;;6.00;5.00;;;;;11.72;65.97;99926.84;2093624;27;47261;-66
2021/12/01 03:31:55;;;;;;;;;3.67;3.67;;;;;11.72;65.72;99930.34;2088262;28;48210;-65
2021/12/01 03:32:56;;;;;;;;;3.00;3.00;;;;;11.72;65.75;99914.41;2083334;28;47149;-64
2021/12/01 03:33:56;;;;;;;;;2.33;2.33;;;;;11.73;65.77;99915.28;2085065;28;48155;-64
2021/12/01 03:34:58;;;;;;;;;2.00;1.67;;;;;11.72;65.64;99919.72;2092618;28;48379;-64
2021/12/01 03:35:58;;;;;;;;;4.00;4.00;;;;;11.74;65.94;99920.53;2092570;27;48140;-63
2021/12/01 03:36:59;;;;;;;;;4.00;4.00;;;;;11.74;66.06;99922.31;2092964;27;46454;-65
2021/12/01 03:37:59;;;;;;;;;3.00;3.00;;;;;11.74;65.85;99915.22;2091251;28;47403;-65
2021/12/01 03:39:00;;;;;;;;;4.00;4.00;;;;;11.75;65.98;99910.75;2092037;28;47377;-64
2021/12/01 03:40:01;;;;;;;;;5.00;2.00;;;;;11.75;65.87;99914.28;2085055;28;48268;-65
2021/12/01 03:41:01;;;;;;;;;3.00;3.00;;;;;11.76;65.95;99910.69;2086769;28;45354;-66
2021/12/01 03:42:02;;;;;;;;;3.00;3.00;;;;;11.76;65.91;99909.81;2090083;28;47999;-65
2021/12/01 03:43:03;;;;;;;;;2.75;2.00;;;;;11.76;66.06;99905.38;2092006;28;48390;-64
2021/12/01 03:44:05;;;;;;;;;2.00;2.00;;;;;11.77;66.15;99896.47;2089621;28;46407;-65
2021/12/01 03:45:06;;;;;;;;;3.25;3.25;;;;;11.77;66.30;99883.19;2097072;27;45228;-65
2021/12/01 03:46:08;;;;;;;;;2.00;2.00;;;;;11.79;65.98;99891.13;2091409;28;47569;-64
2021/12/01 03:47:08;;;;;;;;;1.00;1.00;;;;;11.80;66.31;99887.53;2091371;28;47607;-65
2021/12/01 03:48:09;;;;;;;;;3.00;2.00;;;;;11.79;66.14;99881.34;2091816;27;47179;-65
2021/12/01 03:49:10;;;;;;;;;3.67;3.67;;;;;11.81;66.17;99880.44;2094391;28;45428;-64
2021/12/01 03:50:10;;;;;;;;;3.00;3.00;;;;;11.81;66.24;99877.75;2079305;28;47330;-65
2021/12/01 03:51:11;;;;;;;;;5.00;3.00;;;;;11.81;66.33;99873.31;2088599;28;47452;-64
2021/12/01 03:52:16;;;;;;;;;1.00;1.00;;;;;11.83;66.15;99865.31;2083911;28;47571;-65
2021/12/01 03:53:19;;;;;;;;;1.00;1.00;;;;;11.83;66.41;99870.63;2090174;28;46261;-64
2021/12/01 03:54:20;;;;;;;;;2.00;2.00;;;;;11.83;66.27;99858.19;2091987;27;47267;-64
2021/12/01 03:55:21;;;;;;;;;1.00;1.00;;;;;11.85;66.44;99858.13;2091829;28;46424;-65
2021/12/01 03:56:21;;;;;;;;;3.00;3.00;;;;;11.86;66.52;99857.19;2091664;28;47275;-65
2021/12/01 03:57:22;;;;;;;;;2.00;1.67;;;;;11.86;66.51;99859.84;2083875;28;45245;-65
2021/12/01 03:58:22;;;;;;;;;2.00;2.00;;;;;11.86;66.54;99854.53;2091611;28;47807;-65
2021/12/01 03:59:23;;;;;;;;;1.00;1.00;;;;;11.87;66.64;99849.16;2091248;27;47786;-65
2021/12/01 04:00:23;;;;;;;;;2.00;2.00;;;;;11.89;66.67;99846.44;2091393;28;47567;-65
2021/12/01 04:01:24;;;;;;;;;3.00;2.00;;;;;11.89;66.67;99846.44;2091545;28;47439;-64
2021/12/01 04:02:24;;;;;;;;;4.00;3.00;;;;;11.90;66.50;99841.06;2091301;28;47098;-66
2021/12/01 04:03:25;;;;;;;;;3.00;3.00;;;;;11.90;66.64;99842.84;2092121;28;47140;-65
2021/12/01 04:04:25;;;;;;;;;2.00;2.00;;;;;11.90;66.77;99840.19;2091464;28;47142;-65
2021/12/01 04:05:26;;;;;;;;;3.33;3.00;;;;;11.90;66.78;99835.72;2091091;28;47235;-65
2021/12/01 04:06:27;;;;;;;;;0.67;0.67;;;;;11.90;66.86;99824.22;2104053;27;47719;-64
2021/12/01 04:07:27;;;;;;;;;2.75;2.50;;;;;11.91;67.01;99837.47;2091010;28;48261;-65
2021/12/01 04:08:28;;;;;;;;;3.00;3.00;;;;;11.91;66.81;99818.84;2085424;28;47643;-67
2021/12/01 04:09:30;;;;;;;;;1.33;1.33;;;;;11.91;67.03;99821.50;2091978;28;45321;-64
2021/12/01 04:10:31;;;;;;;;;2.25;2.25;;;;;11.91;66.86;99812.66;2092130;28;48289;-64
2021/12/01 04:11:32;;;;;;;;;3.00;3.00;;;;;11.91;66.94;99794.91;2090834;27;48000;-65
2021/12/01 04:12:33;;;;;;;;;2.00;2.00;;;;;11.92;66.94;99793.13;2092331;27;47312;-65
2021/12/01 04:13:33;;;;;;;;;1.50;1.50;;;;;11.92;67.03;99785.16;2090206;28;47255;-64
2021/12/01 04:14:34;;;;;;;;;4.00;3.00;;;;;11.93;66.89;99786.88;2091238;28;47636;-65
2021/12/01 04:15:34;;;;;;;;;3.33;3.33;;;;;11.93;67.16;99766.47;2091005;28;45390;-65
2021/12/01 04:16:36;;;;;;;;;3.67;3.67;;;;;11.92;67.15;99783.34;2086899;27;47316;-66
2021/12/01 04:17:37;;;;;;;;;2.50;2.50;;;;;11.92;66.98;99779.84;2091911;28;47499;-65
2021/12/01 04:18:39;;;;;;;;;4.00;3.00;;;;;11.92;67.15;99779.84;2091794;27;47107;-65
2021/12/01 04:19:39;;;;;;;;;4.50;4.00;;;;;11.92;66.89;99772.72;2091731;28;47215;-66
2021/12/01 04:20:40;;;;;;;;;4.00;4.00;;;;;11.93;67.26;99757.63;2091331;28;47630;-66
2021/12/01 04:21:41;;;;;;;;;6.00;5.33;;;;;11.92;67.32;99772.72;2091348;28;46784;-64
2021/12/01 04:22:44;;;;;;;;;3.00;3.00;;;;;11.93;67.23;99774.44;2084866;28;47242;-65
2021/12/01 04:23:44;;;;;;;;;4.00;4.00;;;;;11.92;67.18;99755.91;2082860;28;48440;-65
2021/12/01 04:24:45;;;;;;;;;3.67;3.67;;;;;11.93;67.32;99757.63;2086294;28;47060;-66
2021/12/01 04:25:45;;;;;;;;;4.00;4.00;;;;;11.92;67.33;99759.44;2091856;28;47371;-66
2021/12/01 04:26:46;;;;;;;;;5.00;4.00;;;;;11.93;67.46;99758.50;2091971;27;46962;-66
2021/12/01 04:27:47;;;;;;;;;5.00;4.00;;;;;11.92;67.10;99759.44;2091840;28;47070;-65
2021/12/01 04:28:47;;;;;;;;;4.33;4.33;;;;;11.92;67.29;99750.59;2091739;28;48373;-65
2021/12/01 04:29:48;;;;;;;;;4.00;4.00;;;;;11.92;67.45;99759.44;2091422;27;47158;-65
2021/12/01 04:30:48;;;;;;;;;4.67;4.00;;;;;11.92;67.52;99758.56;2091906;28;47121;-64
2021/12/01 04:31:50;;;;;;;;;4.00;4.00;;;;;11.94;67.66;99759.34;2091754;27;47731;-66
2021/12/01 04:32:52;;;;;;;;;3.50;3.50;;;;;11.94;67.40;99748.72;2091961;28;47556;-65
2021/12/01 04:33:52;;;;;;;;;4.00;4.00;;;;;11.93;67.15;99745.19;2091780;28;48459;-65
2021/12/01 04:34:53;;;;;;;;;4.67;4.67;;;;;11.94;67.52;99740.75;2092113;28;45652;-65
2021/12/01 04:35:53;;;;;;;;;4.33;4.33;;;;;11.94;67.43;99738.09;2091627;27;47274;-65
2021/12/01 04:36:54;;;;;;;;;5.00;5.00;;;;;11.93;67.55;99729.25;2091743;28;45859;-66
2021/12/01 04:37:55;;;;;;;;;5.00;5.00;;;;;11.94;67.71;99727.44;2086460;28;47276;-66
2021/12/01 04:38:56;;;;;;;;;5.25;4.00;;;;;11.92;67.49;99724.88;2090960;28;48368;-65
2021/12/01 04:39:57;;;;;;;;;4.00;4.00;;;;;11.91;67.75;99725.78;2091398;28;48208;-65
2021/12/01 04:40:57;;;;;;;;;4.33;4.33;;;;;11.92;67.67;99732.84;2094904;27;47379;-64
2021/12/01 04:42:05;;;;;;;;;6.33;6.33;;;;;11.93;67.80;99725.72;2090361;28;48416;-64
2021/12/01 04:43:05;;;;;;;;;4.50;4.50;;;;;11.92;67.50;99711.56;2089243;28;48265;-65
2021/12/01 04:44:14;;;;;;;;;5.00;5.00;;;;;11.93;67.76;99713.28;2091813;28;47219;-66
2021/12/01 04:45:17;;;;;;;;;4.00;4.00;;;;;11.93;67.80;99705.31;2099268;27;48235;-65
2021/12/01 04:46:20;;;;;;;;;4.75;4.75;;;;;11.93;67.70;99707.97;2090135;28;47346;-67
2021/12/01 04:47:27;;;;;;;;;6.67;4.00;;;;;11.93;67.67;99707.13;2091429;28;47207;-67
2021/12/01 04:48:29;;;;;;;;;6.00;6.00;;;;;11.93;68.02;99709.78;2091495;28;47450;-66
2021/12/01 04:49:35;;;;;;;;;3.25;3.25;;;;;11.92;67.63;99700.94;2099431;28;47314;-67
2021/12/01 04:50:36;;;;;;;;;4.75;4.75;;;;;11.92;67.46;99694.75;2098768;28;47783;-66
2021/12/01 04:51:38;;;;;;;;;3.67;3.67;;;;;11.91;67.66;99695.69;2091775;27;47212;-66
2021/12/01 04:52:39;;;;;;;;;3.75;3.00;;;;;11.91;67.89;99703.66;2091569;28;47463;-67
2021/12/01 04:53:39;;;;;;;;;4.33;4.33;;;;;11.90;67.68;99691.31;2091867;28;46266;-66